Time;durP1;ratioP1;P1;durP2;ratioP2;P2;SDS_P1;SDS_P2;PMS_P1;PMS_P2;Temp;Humidity;BMP_temperature;BMP_pressure;BME280_temperature;BME280_humidity;BME280_pressure;Samples;Min_cycle;Max_cycle;Signal;HPM_P1;HPM_P2
2021/03/19 00:01:08;;;;;;;18.42;11.43;;;2.90;77.40;;;;;;5034640;28;20027;-91
2021/03/19 00:03:33;;;;;;;19.02;10.20;;;2.90;77.40;;;;;;5020401;28;20111;-91
2021/03/19 00:05:59;;;;;;;19.23;10.90;;;3.00;77.50;;;;;;5014345;28;20053;-91
2021/03/19 00:08:25;;;;;;;19.55;11.43;;;3.00;77.60;;;;;;5017145;28;20123;-92
2021/03/19 00:24:19;;;;;;;21.58;11.65;;;3.00;77.50;;;;;;5059937;28;20042;-91
2021/03/19 00:26:45;;;;;;;19.83;11.23;;;3.00;77.40;;;;;;5049528;28;20474;-91
2021/03/19 00:29:10;;;;;;;21.67;11.05;;;3.00;77.50;;;;;;5037803;28;20059;-91
2021/03/19 00:31:36;;;;;;;20.10;11.90;;;3.00;77.70;;;;;;5037951;28;20029;-91
2021/03/19 00:34:02;;;;;;;21.25;12.40;;;3.00;77.90;;;;;;5037792;28;20025;-92
2021/03/19 00:36:27;;;;;;;20.95;12.80;;;3.00;77.80;;;;;;5037626;28;20021;-91
2021/03/19 00:38:53;;;;;;;18.60;11.68;;;3.00;77.90;;;;;;5037604;28;20032;-91
2021/03/19 00:41:20;;;;;;;25.20;12.65;;;2.90;77.90;;;;;;5037381;28;20021;-91
2021/03/19 00:43:45;;;;;;;24.45;12.82;;;3.00;78.20;;;;;;5037753;28;20021;-89
2021/03/19 00:46:11;;;;;;;23.67;13.45;;;3.00;78.00;;;;;;5037193;28;20067;-91
2021/03/19 00:48:36;;;;;;;23.50;13.35;;;3.00;78.00;;;;;;5037596;28;20025;-91
2021/03/19 00:51:02;;;;;;;24.05;12.30;;;3.00;78.00;;;;;;5037329;28;20108;-90
2021/03/19 00:53:28;;;;;;;29.13;13.77;;;3.00;78.10;;;;;;5037449;28;20032;-90
2021/03/19 00:55:55;;;;;;;26.52;13.77;;;2.90;78.10;;;;;;5037273;28;20029;-91
2021/03/19 00:58:21;;;;;;;22.65;12.00;;;2.90;78.30;;;;;;5045050;28;20056;-90
2021/03/19 01:00:47;;;;;;;23.52;13.05;;;3.00;78.40;;;;;;5025842;28;20025;-90
2021/03/19 01:03:13;;;;;;;22.05;12.07;;;3.00;78.30;;;;;;5026941;28;20025;-91
2021/03/19 01:05:44;;;;;;;22.35;13.25;;;3.00;78.40;;;;;;5017194;28;20028;-90
2021/03/19 01:08:12;;;;;;;20.35;11.68;;;3.00;78.40;;;;;;5036409;28;20048;-91
2021/03/19 01:10:40;;;;;;;23.02;12.73;;;3.00;78.30;;;;;;5036923;28;20395;-91
2021/03/19 01:13:07;;;;;;;21.90;12.85;;;3.10;78.40;;;;;;5036729;28;20324;-91
2021/03/19 01:15:33;;;;;;;20.60;12.68;;;3.10;78.30;;;;;;5036511;28;20059;-91
2021/03/19 01:18:00;;;;;;;22.50;11.70;;;3.10;78.20;;;;;;5036834;28;20028;-91
2021/03/19 01:20:28;;;;;;;25.52;12.60;;;3.00;78.20;;;;;;5036551;28;20078;-91
2021/03/19 01:22:54;;;;;;;19.73;12.18;;;3.10;78.40;;;;;;5036721;28;20036;-91
2021/03/19 01:25:22;;;;;;;22.40;12.93;;;3.10;78.40;;;;;;5036778;28;20018;-91
2021/03/19 01:27:48;;;;;;;24.55;12.90;;;3.10;78.40;;;;;;5035633;28;20029;-91
2021/03/19 01:30:20;;;;;;;23.55;12.98;;;3.00;78.30;;;;;;5032322;28;20029;-92
2021/03/19 01:32:47;;;;;;;23.23;13.07;;;3.00;78.40;;;;;;5036876;28;20474;-91
2021/03/19 01:35:14;;;;;;;22.48;12.43;;;3.00;78.40;;;;;;5036534;28;20029;-92
2021/03/19 01:37:39;;;;;;;23.30;13.57;;;3.00;78.50;;;;;;5036391;28;20509;-91
2021/03/19 01:40:07;;;;;;;20.58;12.32;;;3.00;78.50;;;;;;5036479;28;20024;-91
2021/03/19 01:42:35;;;;;;;24.40;12.85;;;2.90;78.50;;;;;;5037216;28;20033;-91
2021/03/19 01:45:07;;;;;;;21.85;13.18;;;2.90;78.70;;;;;;5036794;28;20025;-90
2021/03/19 01:48:10;;;;;;;21.30;12.00;;;2.90;78.90;;;;;;5036920;28;20032;-91
2021/03/19 01:50:54;;;;;;;;;;;2.90;78.90;;;;;;5037122;28;20029;-91
2021/03/19 01:53:57;;;;;;;24.17;12.77;;;2.90;78.50;;;;;;5036033;28;20328;-91
2021/03/19 01:57:01;;;;;;;23.10;12.73;;;2.90;78.70;;;;;;5035613;28;20505;-91
2021/03/19 02:00:11;;;;;;;22.77;12.18;;;2.80;78.70;;;;;;5044143;28;20037;-91
2021/03/19 02:03:14;;;;;;;22.20;12.27;;;2.90;78.80;;;;;;5011217;28;20037;-91
2021/03/19 02:06:17;;;;;;;19.73;11.93;;;2.80;78.60;;;;;;5024445;28;20033;-91
2021/03/19 02:09:21;;;;;;;26.42;12.80;;;2.80;79.00;;;;;;5016145;28;20124;-92
2021/03/19 02:12:24;;;;;;;22.08;12.13;;;2.80;78.90;;;;;;5015849;28;20076;-91
2021/03/19 02:15:27;;;;;;;24.05;12.50;;;2.70;78.90;;;;;;5033605;28;20047;-91
2021/03/19 02:18:30;;;;;;;19.75;11.68;;;2.80;79.10;;;;;;5035591;28;20082;-91
2021/03/19 02:21:33;;;;;;;22.73;13.05;;;2.70;78.90;;;;;;5035504;28;20059;-91
2021/03/19 02:24:36;;;;;;;22.08;11.90;;;2.70;79.00;;;;;;5035604;28;20489;-90
2021/03/19 02:27:40;;;;;;;21.55;11.70;;;2.70;79.00;;;;;;5035103;28;20023;-91
2021/03/19 02:30:43;;;;;;;22.70;12.07;;;2.70;79.10;;;;;;5015402;28;20030;-91
2021/03/19 02:33:08;;;;;;;21.67;12.43;;;2.80;79.00;;;;;;5033873;28;20025;-91
2021/03/19 02:35:52;;;;;;;19.38;11.82;;;2.70;78.90;;;;;;5035352;28;20032;-90
2021/03/19 02:38:18;;;;;;;25.42;13.80;;;2.70;79.10;;;;;;5035607;28;20032;-91
2021/03/19 02:40:44;;;;;;;21.35;12.65;;;2.70;79.10;;;;;;5035688;28;20048;-92
2021/03/19 02:43:09;;;;;;;25.73;13.40;;;2.70;79.10;;;;;;5035469;28;20025;-91
2021/03/19 02:45:35;;;;;;;27.17;13.90;;;2.70;79.00;;;;;;5035345;28;20013;-91
2021/03/19 02:48:00;;;;;;;24.98;13.35;;;2.70;79.10;;;;;;5035351;28;20025;-91
2021/03/19 02:50:26;;;;;;;23.60;12.68;;;2.80;79.10;;;;;;5035239;28;20444;-91
2021/03/19 02:52:52;;;;;;;25.55;13.70;;;2.80;79.20;;;;;;5035242;28;20119;-91
2021/03/19 02:55:18;;;;;;;24.92;13.68;;;2.80;79.20;;;;;;5034884;28;20083;-91
2021/03/19 02:57:44;;;;;;;23.65;12.82;;;2.80;79.00;;;;;;5061190;23;20041;-85
2021/03/19 03:00:20;;;;;;;24.48;13.68;;;2.80;79.10;;;;;;5043087;28;20017;-86
2021/03/19 03:02:45;;;;;;;25.48;14.75;;;2.80;79.30;;;;;;5050535;28;20028;-86
2021/03/19 03:05:11;;;;;;;22.42;13.45;;;2.80;79.30;;;;;;5037902;28;20098;-86
2021/03/19 03:07:37;;;;;;;24.95;13.93;;;2.80;79.10;;;;;;5055999;28;20025;-86
2021/03/19 03:10:05;;;;;;;26.92;14.60;;;2.80;79.10;;;;;;5055261;28;20111;-86
2021/03/19 03:12:30;;;;;;;26.20;16.48;;;2.80;79.10;;;;;;5054735;28;20029;-86
2021/03/19 03:14:56;;;;;;;26.58;14.43;;;2.80;79.10;;;;;;5055699;28;20025;-86
2021/03/19 03:17:22;;;;;;;29.80;16.10;;;2.70;79.10;;;;;;5055027;28;20517;-86
2021/03/19 03:19:48;;;;;;;23.67;14.35;;;2.80;79.30;;;;;;5054856;28;20344;-86
2021/03/19 03:22:14;;;;;;;25.02;15.13;;;2.80;79.20;;;;;;5055621;28;20036;-87
2021/03/19 03:24:40;;;;;;;25.67;15.50;;;2.80;79.30;;;;;;5055088;28;20028;-87
2021/03/19 03:27:08;;;;;;;27.65;15.15;;;2.80;79.30;;;;;;5054365;28;20091;-86
2021/03/19 03:29:35;;;;;;;25.42;15.35;;;2.80;79.40;;;;;;5053759;28;20029;-86
2021/03/19 03:32:01;;;;;;;28.25;16.23;;;2.80;79.40;;;;;;5054529;28;20029;-86
2021/03/19 03:34:27;;;;;;;28.95;15.05;;;2.90;79.80;;;;;;5053811;28;20116;-86
2021/03/19 03:36:53;;;;;;;26.13;15.48;;;2.90;79.30;;;;;;5054335;28;20329;-86
2021/03/19 03:39:24;;;;;;;28.10;15.52;;;2.90;79.70;;;;;;5053872;28;20029;-86
2021/03/19 03:41:50;;;;;;;31.00;16.52;;;2.90;79.20;;;;;;5053535;28;20033;-85
2021/03/19 03:44:17;;;;;;;31.92;18.85;;;2.90;79.20;;;;;;5054153;28;20025;-85
2021/03/19 03:46:45;;;;;;;29.08;16.05;;;2.90;79.20;;;;;;5054222;28;20025;-85
2021/03/19 03:49:12;;;;;;;28.08;16.10;;;2.90;79.10;;;;;;5054178;28;20029;-86
2021/03/19 03:51:37;;;;;;;28.95;16.42;;;2.90;79.30;;;;;;5056467;28;20032;-86
2021/03/19 03:54:03;;;;;;;31.92;17.17;;;2.90;79.30;;;;;;5057425;28;20547;-85
2021/03/19 03:56:29;;;;;;;29.25;16.45;;;2.90;79.40;;;;;;5056625;28;20056;-86
2021/03/19 03:58:55;;;;;;;30.67;17.48;;;2.90;79.40;;;;;;5053586;28;20060;-85
2021/03/19 04:01:21;;;;;;;30.33;16.58;;;2.80;79.30;;;;;;5050535;28;20025;-86
2021/03/19 04:03:47;;;;;;;32.40;18.23;;;2.80;79.30;;;;;;5041738;28;20025;-86
2021/03/19 04:06:13;;;;;;;30.38;17.25;;;2.80;79.40;;;;;;5052262;28;20065;-85
2021/03/19 04:08:39;;;;;;;29.15;16.80;;;2.80;79.30;;;;;;5057265;28;20059;-86
2021/03/19 04:11:11;;;;;;;33.15;18.13;;;2.80;79.40;;;;;;5058959;28;20029;-86
2021/03/19 04:13:38;;;;;;;32.55;17.55;;;2.80;79.50;;;;;;5059113;28;20029;-86
2021/03/19 04:16:04;;;;;;;32.03;17.88;;;2.80;79.50;;;;;;5057981;28;20055;-86
2021/03/19 04:18:30;;;;;;;29.92;17.17;;;2.80;79.50;;;;;;5057639;28;20036;-86
2021/03/19 04:20:59;;;;;;;36.05;19.23;;;2.80;79.50;;;;;;5057757;28;20016;-87
2021/03/19 04:23:27;;;;;;;36.25;18.63;;;2.80;79.60;;;;;;5057681;28;20467;-86
2021/03/19 04:25:52;;;;;;;34.17;19.25;;;2.80;79.50;;;;;;5057665;28;20025;-87
2021/03/19 04:28:22;;;;;;;32.83;19.20;;;2.80;79.50;;;;;;5055065;28;20021;-86
2021/03/19 04:30:48;;;;;;;34.30;18.77;;;2.80;80.10;;;;;;5057595;28;20116;-87
2021/03/19 04:33:22;;;;;;;37.83;20.30;;;2.70;79.60;;;;;;5064054;28;20107;-85
2021/03/19 04:35:53;;;;;;;35.65;20.20;;;2.70;79.80;;;;;;5057320;28;20029;-87
2021/03/19 04:38:19;;;;;;;41.00;21.45;;;2.70;79.80;;;;;;5057094;28;20020;-87
2021/03/19 04:40:46;;;;;;;36.30;20.27;;;2.60;79.70;;;;;;5057312;28;20503;-86
2021/03/19 04:43:13;;;;;;;40.67;22.90;;;2.60;79.90;;;;;;5058231;28;20060;-86
2021/03/19 04:45:41;;;;;;;39.80;21.23;;;2.60;80.00;;;;;;5058013;28;20021;-86
2021/03/19 04:48:07;;;;;;;40.80;21.73;;;2.60;80.00;;;;;;5058945;28;20025;-86
2021/03/19 04:50:33;;;;;;;42.47;22.00;;;2.60;80.20;;;;;;5057603;28;20051;-86
2021/03/19 04:52:59;;;;;;;45.08;22.70;;;2.60;80.20;;;;;;5057704;28;20029;-85
2021/03/19 04:55:24;;;;;;;45.35;22.77;;;2.60;80.10;;;;;;5058094;28;20107;-86
2021/03/19 04:57:51;;;;;;;41.00;21.90;;;2.60;80.20;;;;;;5054236;28;20021;-86
2021/03/19 05:00:21;;;;;;;40.50;21.25;;;2.60;80.20;;;;;;5053363;28;20021;-86
2021/03/19 05:02:49;;;;;;;48.78;23.33;;;2.60;80.20;;;;;;5056474;28;20029;-86
2021/03/19 05:05:28;;;;;;;43.78;23.35;;;2.60;80.20;;;;;;5057679;28;20021;-87
2021/03/19 05:07:54;;;;;;;43.15;23.42;;;2.50;80.30;;;;;;5058475;28;20021;-86
2021/03/19 05:10:23;;;;;;;44.25;21.98;;;2.50;80.40;;;;;;5058536;28;20399;-86
2021/03/19 05:12:49;;;;;;;45.67;22.83;;;2.50;80.50;;;;;;5056484;28;20120;-86
2021/03/19 05:15:16;;;;;;;44.03;23.02;;;2.40;80.50;;;;;;5056062;28;20061;-86
2021/03/19 05:17:41;;;;;;;44.17;22.15;;;2.40;80.70;;;;;;5055532;28;20037;-86
2021/03/19 05:20:10;;;;;;;42.25;22.67;;;2.50;80.90;;;;;;5056467;28;20032;-86
2021/03/19 05:22:36;;;;;;;47.13;23.23;;;2.50;81.00;;;;;;5055678;28;20101;-86
2021/03/19 05:25:03;;;;;;;52.80;24.55;;;2.60;81.10;;;;;;5050709;28;20035;-86
2021/03/19 05:27:29;;;;;;;46.05;23.25;;;2.60;80.90;;;;;;5044014;28;20108;-87
2021/03/19 05:29:55;;;;;;;45.97;23.60;;;2.60;80.80;;;;;;5055205;28;20072;-85
2021/03/19 05:32:22;;;;;;;49.47;25.00;;;2.60;80.60;;;;;;5055195;28;20144;-85
2021/03/19 05:34:48;;;;;;;54.42;26.40;;;2.60;80.60;;;;;;5054166;28;20041;-86
2021/03/19 05:37:14;;;;;;;48.75;24.05;;;2.60;80.60;;;;;;5055615;28;20029;-86
2021/03/19 05:39:40;;;;;;;50.45;25.55;;;2.60;80.70;;;;;;5055930;28;20023;-86
2021/03/19 05:42:15;;;;;;;47.47;23.30;;;2.60;80.70;;;;;;5055125;28;20482;-86
2021/03/19 05:44:44;;;;;;;48.90;25.45;;;2.60;80.70;;;;;;5047645;28;20029;-86
2021/03/19 05:47:10;;;;;;;45.80;22.30;;;2.60;80.70;;;;;;5055621;28;20025;-85
2021/03/19 05:49:36;;;;;;;63.22;28.70;;;2.60;80.60;;;;;;5054734;28;20441;-86
2021/03/19 05:52:19;;;;;;;50.75;25.65;;;2.60;80.70;;;;;;5055990;28;20120;-87
2021/03/19 05:54:45;;;;;;;46.88;23.48;;;2.60;80.90;;;;;;5055139;28;20021;-86
2021/03/19 05:57:32;;;;;;;42.60;22.60;;;2.60;80.80;;;;;;5054578;28;20290;-87
2021/03/19 06:00:00;;;;;;;43.78;21.15;;;2.60;80.90;;;;;;5053957;28;20029;-86
2021/03/19 06:02:30;;;;;;;51.20;25.00;;;2.70;80.80;;;;;;5054960;28;20040;-87
2021/03/19 06:05:03;;;;;;;46.90;23.40;;;2.70;80.90;;;;;;5051189;28;20033;-87
2021/03/19 06:07:48;;;;;;;44.53;22.73;;;2.80;80.90;;;;;;5048729;28;20487;-87
2021/03/19 06:10:25;;;;;;;42.63;22.73;;;2.80;80.70;;;;;;5053601;28;20029;-87
2021/03/19 06:13:06;;;;;;;43.30;22.73;;;2.80;80.70;;;;;;5053399;28;20033;-87
2021/03/19 06:15:37;;;;;;;43.63;22.33;;;2.80;80.70;;;;;;5052786;28;20044;-87
2021/03/19 06:18:15;;;;;;;44.83;23.50;;;2.80;80.70;;;;;;5049079;28;20428;-89
2021/03/19 06:20:50;;;;;;;45.08;21.40;;;2.80;80.80;;;;;;5049409;28;20052;-88
2021/03/19 06:23:19;;;;;;;42.90;21.88;;;2.80;80.80;;;;;;5049003;28;20375;-88
2021/03/19 06:26:23;;;;;;;40.85;21.63;;;2.80;80.80;;;;;;5050650;28;20025;-89
2021/03/19 06:29:03;;;;;;;37.92;20.48;;;2.80;80.70;;;;;;5052160;28;20114;-87
2021/03/19 06:31:32;;;;;;;36.55;20.08;;;2.90;80.70;;;;;;5051901;28;20033;-86
2021/03/19 06:34:18;;;;;;;39.55;19.85;;;2.90;80.70;;;;;;5054186;28;20112;-86
2021/03/19 06:36:50;;;;;;;44.53;23.00;;;2.90;80.70;;;;;;5048910;28;20090;-86
2021/03/19 06:39:29;;;;;;;40.17;21.70;;;2.80;80.70;;;;;;5052799;28;20501;-86
2021/03/19 06:42:29;;;;;;;41.67;19.95;;;2.80;80.70;;;;;;5051210;28;20029;-87
2021/03/19 06:45:18;;;;;;;38.33;20.23;;;2.90;80.70;;;;;;5051498;28;20020;-87
2021/03/19 06:47:55;;;;;;;32.70;17.65;;;2.90;80.80;;;;;;5053035;28;20033;-86
2021/03/19 06:50:24;;;;;;;35.80;18.90;;;3.00;80.70;;;;;;5053598;28;20395;-86
2021/03/19 06:52:51;;;;;;;38.97;20.63;;;3.00;80.70;;;;;;5052532;28;20100;-86
2021/03/19 06:55:37;;;;;;;36.53;20.38;;;3.00;80.60;;;;;;5051805;28;20035;-86
2021/03/19 06:58:03;;;;;;;34.38;18.63;;;3.10;80.60;;;;;;5049071;28;20466;-86
2021/03/19 07:00:39;;;;;;;32.13;17.98;;;3.00;80.50;;;;;;5048469;28;20291;-86
2021/03/19 07:03:10;;;;;;;29.58;16.73;;;3.00;80.70;;;;;;5051738;28;20032;-86
2021/03/19 07:05:59;;;;;;;26.70;16.13;;;3.10;80.80;;;;;;5052452;28;20055;-86
2021/03/19 07:08:34;;;;;;;25.42;15.52;;;3.10;80.70;;;;;;5051260;28;20384;-86
2021/03/19 07:11:03;;;;;;;26.20;14.90;;;3.20;80.70;;;;;;5053233;28;20059;-87
2021/03/19 07:14:06;;;;;;;25.10;14.70;;;3.30;80.70;;;;;;5048507;28;20147;-87
2021/03/19 07:16:46;;;;;;;22.00;13.55;;;3.30;80.60;;;;;;5048758;28;20465;-86
2021/03/19 07:19:31;;;;;;;25.30;15.35;;;3.40;80.60;;;;;;5042627;28;20071;-86
2021/03/19 07:22:15;;;;;;;23.38;14.05;;;3.40;80.50;;;;;;5050244;28;20021;-86
2021/03/19 07:24:58;;;;;;;27.20;14.82;;;3.40;80.30;;;;;;5042234;28;20021;-87
2021/03/19 07:27:33;;;;;;;24.45;14.50;;;3.50;80.40;;;;;;5062639;28;20025;-86
2021/03/19 07:30:28;;;;;;;26.73;15.10;;;3.50;80.30;;;;;;5045531;28;20025;-87
2021/03/19 07:33:14;;;;;;;29.02;15.65;;;3.50;80.20;;;;;;5052420;28;20077;-86
2021/03/19 07:36:03;;;;;;;29.55;16.25;;;3.50;80.20;;;;;;5052146;28;20055;-86
2021/03/19 07:38:37;;;;;;;30.40;16.15;;;3.50;80.20;;;;;;5032757;28;20041;-86
2021/03/19 07:41:06;;;;;;;27.42;16.02;;;3.60;80.40;;;;;;5051720;28;20083;-86
2021/03/19 07:44:09;;;;;;;33.05;18.05;;;3.60;80.20;;;;;;5052880;28;20561;-87
2021/03/19 07:47:00;;;;;;;31.92;17.40;;;3.60;80.10;;;;;;5055765;28;20501;-85
2021/03/19 07:49:54;;;;;;;32.55;16.77;;;3.60;80.00;;;;;;4995878;28;20557;-85
2021/03/19 07:52:36;;;;;;;36.72;18.88;;;3.60;80.00;;;;;;5050941;28;20523;-86
2021/03/19 07:55:26;;;;;;;34.67;17.95;;;3.60;80.00;;;;;;5053675;28;20130;-86
2021/03/19 07:58:30;;;;;;;34.13;18.20;;;3.60;80.00;;;;;;5055991;28;20463;-87
2021/03/19 08:01:24;;;;;;;35.75;18.23;;;3.60;80.00;;;;;;5051327;28;20017;-86
2021/03/19 08:04:06;;;;;;;34.22;17.92;;;3.60;80.00;;;;;;5043429;28;20048;-86
2021/03/19 08:06:36;;;;;;;35.35;18.08;;;3.60;80.00;;;;;;5056380;28;20120;-87
2021/03/19 08:09:12;;;;;;;36.90;18.75;;;3.60;80.00;;;;;;5058444;28;20040;-87
2021/03/19 08:11:48;;;;;;;34.83;18.25;;;3.60;80.20;;;;;;5057618;28;20021;-87
2021/03/19 08:14:53;;;;;;;34.33;17.73;;;3.60;80.10;;;;;;5058598;28;20031;-87
2021/03/19 08:17:33;;;;;;;50.30;27.92;;;3.60;80.00;;;;;;5068026;28;20043;-87
2021/03/19 08:20:16;;;;;;;31.08;15.73;;;3.70;80.30;;;;;;5047602;28;20072;-87
2021/03/19 08:22:58;;;;;;;28.48;15.10;;;3.80;80.10;;;;;;5047874;28;20033;-85
2021/03/19 08:25:38;;;;;;;27.05;14.32;;;3.80;79.80;;;;;;5059474;28;20025;-85
2021/03/19 08:28:18;;;;;;;24.48;13.52;;;3.80;79.70;;;;;;5056770;28;20442;-86
2021/03/19 08:31:05;;;;;;;22.40;12.77;;;3.80;79.60;;;;;;5054545;28;20111;-86
2021/03/19 08:33:36;;;;;;;20.30;10.90;;;3.80;79.60;;;;;;5046672;28;20022;-86
2021/03/19 08:36:12;;;;;;;17.98;10.10;;;3.90;79.50;;;;;;5062504;28;20121;-87
2021/03/19 08:38:47;;;;;;;15.57;8.93;;;3.90;79.40;;;;;;5067671;28;20017;-85
2021/03/19 08:41:30;;;;;;;15.68;9.35;;;3.90;79.30;;;;;;5062271;28;20016;-86
2021/03/19 08:44:04;;;;;;;15.35;8.70;;;4.00;79.20;;;;;;5060591;28;20037;-86
2021/03/19 08:46:52;;;;;;;12.45;8.77;;;4.80;78.30;;;;;;5062814;28;20108;-86
2021/03/19 08:49:24;;;;;;;15.77;8.73;;;5.40;77.50;;;;;;5041621;28;20030;-86
2021/03/19 08:51:51;;;;;;;13.00;7.78;;;5.50;76.90;;;;;;5057774;28;20040;-86
2021/03/19 08:54:26;;;;;;;14.70;7.78;;;5.30;77.00;;;;;;5060713;28;20064;-86
2021/03/19 08:57:18;;;;;;;15.70;7.88;;;5.20;77.30;;;;;;5066302;28;20035;-86
2021/03/19 08:59:44;;;;;;;13.23;7.70;;;5.10;77.40;;;;;;5069837;22;20084;-89
2021/03/19 09:02:32;;;;;;;13.60;8.00;;;5.00;77.70;;;;;;4997464;28;20061;-89
2021/03/19 09:05:00;;;;;;;10.48;6.70;;;4.90;77.90;;;;;;5005169;28;20036;-90
2021/03/19 09:07:38;;;;;;;11.85;7.22;;;4.90;77.80;;;;;;5015978;28;20075;-90
2021/03/19 09:10:33;;;;;;;11.13;6.72;;;4.80;77.90;;;;;;4997892;28;20037;-89
2021/03/19 09:12:59;;;;;;;10.90;6.43;;;4.80;78.10;;;;;;4972771;28;20038;-89
2021/03/19 09:15:32;;;;;;;8.60;6.10;;;4.70;78.00;;;;;;4984001;28;20026;-90
2021/03/19 09:18:25;;;;;;;9.02;6.20;;;4.60;78.00;;;;;;4981952;28;20396;-89
2021/03/19 09:21:19;;;;;;;10.15;6.57;;;4.50;78.10;;;;;;4998147;28;20022;-88
2021/03/19 09:24:18;;;;;;;45.10;24.83;;;4.40;78.20;;;;;;4997945;28;20113;-90
2021/03/19 09:26:45;;;;;;;9.85;6.45;;;4.40;78.40;;;;;;4957212;28;20034;-89
2021/03/19 09:29:14;;;;;;;8.48;6.15;;;4.50;78.40;;;;;;4978748;28;20030;-89
2021/03/19 09:31:46;;;;;;;8.38;5.43;;;4.60;78.10;;;;;;4995006;28;20032;-90
2021/03/19 09:34:16;;;;;;;6.88;5.25;;;4.60;77.90;;;;;;4997689;28;20026;-89
2021/03/19 09:36:53;;;;;;;8.07;5.85;;;4.60;77.80;;;;;;4998211;28;20503;-90
2021/03/19 09:39:45;;;;;;;7.75;5.88;;;4.40;77.80;;;;;;4996977;28;20036;-88
2021/03/19 09:42:20;;;;;;;8.20;5.90;;;4.30;77.70;;;;;;4981793;28;20032;-88
2021/03/19 09:44:46;;;;;;;7.30;5.72;;;4.20;78.40;;;;;;4984919;28;20265;-89
2021/03/19 09:47:13;;;;;;;9.35;5.70;;;4.20;78.70;;;;;;4988938;28;20037;-89
2021/03/19 09:49:39;;;;;;;7.28;5.68;;;4.10;78.60;;;;;;4995707;28;20030;-89
2021/03/19 09:52:15;;;;;;;6.90;5.53;;;4.00;78.70;;;;;;5011701;28;20029;-88
2021/03/19 09:54:42;;;;;;;8.13;5.82;;;4.00;78.70;;;;;;4996181;28;20480;-89
2021/03/19 09:57:32;;;;;;;8.73;5.97;;;3.90;78.70;;;;;;5014864;28;20053;-89
2021/03/19 10:00:19;;;;;;;8.02;6.10;;;3.90;78.60;;;;;;4987069;28;20555;-89
2021/03/19 10:02:45;;;;;;;10.27;6.95;;;3.90;78.40;;;;;;4996845;28;20404;-89
2021/03/19 10:05:14;;;;;;;9.77;6.60;;;3.90;78.60;;;;;;5003809;28;20029;-89
2021/03/19 10:07:51;;;;;;;9.32;6.28;;;3.80;78.30;;;;;;5011813;28;20079;-88
2021/03/19 10:10:32;;;;;;;10.55;7.30;;;3.80;78.40;;;;;;4994657;28;20377;-89
2021/03/19 10:13:23;;;;;;;12.18;8.23;;;3.80;78.60;;;;;;4987846;28;20038;-88
2021/03/19 10:15:55;;;;;;;12.68;8.45;;;3.80;78.60;;;;;;4994638;28;20033;-88
2021/03/19 10:18:36;;;;;;;16.20;9.63;;;3.80;78.60;;;;;;5009694;28;20498;-90
2021/03/19 10:21:06;;;;;;;12.85;7.80;;;3.90;78.50;;;;;;5016259;28;20058;-87
2021/03/19 10:23:39;;;;;;;16.48;10.00;;;3.90;78.20;;;;;;5000147;28;20064;-89
2021/03/19 10:26:42;;;;;;;18.38;10.43;;;3.80;78.10;;;;;;4996441;28;20018;-89
2021/03/19 10:29:12;;;;;;;20.25;11.30;;;3.90;78.30;;;;;;4966540;28;20573;-89
2021/03/19 10:31:46;;;;;;;20.90;10.77;;;3.90;78.20;;;;;;4990023;28;20034;-89
2021/03/19 10:34:55;;;;;;;18.73;11.10;;;3.90;78.30;;;;;;4995572;28;20461;-88
2021/03/19 10:37:37;;;;;;;17.60;10.63;;;3.80;78.40;;;;;;4996327;28;20455;-89
2021/03/19 10:40:23;;;;;;;21.67;11.45;;;3.70;78.40;;;;;;4993904;28;20030;-89
2021/03/19 10:43:11;;;;;;;21.77;12.38;;;3.50;78.80;;;;;;4976986;28;20030;-88
2021/03/19 10:45:57;;;;;;;22.75;11.60;;;3.40;79.20;;;;;;4977031;28;20198;-88
2021/03/19 10:48:38;;;;;;;21.13;11.70;;;3.30;79.60;;;;;;4994358;28;20569;-88
2021/03/19 10:51:15;;;;;;;22.58;12.95;;;3.20;79.90;;;;;;4987715;28;20038;-89
2021/03/19 10:53:52;;;;;;;22.95;12.82;;;3.20;80.10;;;;;;4976601;28;20022;-89
2021/03/19 10:56:19;;;;;;;23.23;13.23;;;3.20;80.30;;;;;;4991935;28;20033;-89
2021/03/19 10:58:51;;;;;;;25.45;14.80;;;3.20;80.20;;;;;;4995837;28;20093;-88
2021/03/19 11:01:27;;;;;;;26.92;15.00;;;3.30;80.50;;;;;;4993875;28;20026;-88
2021/03/19 11:03:54;;;;;;;29.65;16.30;;;3.40;80.50;;;;;;4995606;28;20018;-88
2021/03/19 11:06:41;;;;;;;24.95;12.65;;;3.40;80.40;;;;;;5015589;28;20498;-89
2021/03/19 11:09:16;;;;;;;24.10;13.77;;;3.40;79.90;;;;;;5009820;28;20046;-89
2021/03/19 11:11:51;;;;;;;29.75;15.38;;;3.40;80.30;;;;;;4993684;28;20045;-89
2021/03/19 11:14:21;;;;;;;28.10;14.85;;;3.40;80.40;;;;;;4976194;28;20030;-89
2021/03/19 11:16:49;;;;;;;31.25;14.48;;;3.40;80.40;;;;;;4976388;28;20069;-89
2021/03/19 11:19:27;;;;;;;27.90;14.63;;;3.50;80.40;;;;;;4984959;28;20172;-89
2021/03/19 11:22:03;;;;;;;27.38;14.52;;;3.50;80.50;;;;;;5006606;28;20022;-89
2021/03/19 11:24:36;;;;;;;28.38;14.77;;;3.60;80.40;;;;;;5013296;28;20022;-89
2021/03/19 11:27:18;;;;;;;26.88;14.75;;;3.60;80.40;;;;;;4989228;28;20018;-88
2021/03/19 11:29:44;;;;;;;23.13;12.70;;;3.70;80.30;;;;;;4995719;28;20080;-88
2021/03/19 11:32:13;;;;;;;23.67;12.80;;;3.80;79.80;;;;;;5012772;28;20104;-88
2021/03/19 11:34:46;;;;;;;26.63;13.80;;;3.90;79.50;;;;;;5013067;28;20036;-89
2021/03/19 11:37:29;;;;;;;24.73;13.70;;;4.00;79.60;;;;;;4994793;28;20141;-90
2021/03/19 11:40:05;;;;;;;26.25;14.60;;;4.10;79.20;;;;;;4995696;28;20388;-88
2021/03/19 11:42:54;;;;;;;26.63;13.77;;;4.20;78.80;;;;;;5002751;28;20028;-89
2021/03/19 11:45:27;;;;;;;24.27;13.65;;;4.30;78.70;;;;;;4975597;28;20059;-89
2021/03/19 11:47:59;;;;;;;;;;;4.30;78.50;;;;;;4976776;28;20026;-88
2021/03/19 11:50:28;;;;;;;23.05;13.23;;;4.30;78.30;;;;;;4993662;28;19909;-89
2021/03/19 11:53:07;;;;;;;23.05;13.40;;;4.30;78.10;;;;;;4993701;28;20029;-89
2021/03/19 11:55:45;;;;;;;23.35;11.88;;;4.40;78.00;;;;;;4993214;28;20109;-89
2021/03/19 11:58:13;;;;;;;22.77;12.10;;;4.40;77.90;;;;;;4991677;28;20041;-89
2021/03/19 12:00:40;;;;;;;23.00;12.55;;;4.40;77.70;;;;;;4994990;28;20435;-88
2021/03/19 12:03:12;;;;;;;24.23;12.05;;;4.40;77.80;;;;;;4994358;28;20045;-88
2021/03/19 12:05:38;;;;;;;20.33;12.05;;;4.40;77.90;;;;;;5006379;28;20112;-89
2021/03/19 12:08:05;;;;;;;23.42;12.60;;;4.50;77.60;;;;;;5019040;28;20080;-89
2021/03/19 12:10:30;;;;;;;19.98;11.57;;;4.40;77.60;;;;;;5014562;28;20025;-88
2021/03/19 12:12:57;;;;;;;19.83;11.43;;;4.50;77.50;;;;;;4994001;28;20026;-89
2021/03/19 12:15:24;;;;;;;19.35;11.88;;;4.50;77.40;;;;;;4979408;28;20022;-88
2021/03/19 12:17:50;;;;;;;21.90;12.20;;;4.60;77.30;;;;;;4980046;28;20113;-88
2021/03/19 12:20:16;;;;;;;19.25;11.75;;;4.70;77.30;;;;;;5010484;28;20046;-89
2021/03/19 12:22:42;;;;;;;18.48;11.23;;;4.70;77.00;;;;;;5014851;28;20022;-89
2021/03/19 12:25:16;;;;;;;20.67;11.60;;;4.80;77.00;;;;;;4980227;28;20061;-89
2021/03/19 12:27:42;;;;;;;18.38;10.80;;;4.90;76.90;;;;;;4998117;28;20484;-89
2021/03/19 12:30:08;;;;;;;17.65;10.27;;;4.90;76.50;;;;;;4998270;28;20311;-89
2021/03/19 12:32:34;;;;;;;15.52;9.80;;;4.90;76.20;;;;;;4992143;28;20029;-88
2021/03/19 12:35:00;;;;;;;16.48;9.50;;;4.90;76.10;;;;;;4993637;28;20048;-88
2021/03/19 12:37:25;;;;;;;18.08;9.88;;;4.90;76.10;;;;;;4979426;28;20026;-88
2021/03/19 12:39:51;;;;;;;16.55;10.55;;;4.90;76.10;;;;;;4979025;28;20433;-89
2021/03/19 12:42:16;;;;;;;12.95;7.82;;;4.90;76.10;;;;;;4994034;28;20377;-89
2021/03/19 12:44:42;;;;;;;13.43;7.07;;;4.90;75.80;;;;;;4997290;28;20026;-88
2021/03/19 12:47:08;;;;;;;13.85;8.35;;;5.00;75.60;;;;;;4998638;28;20057;-89
2021/03/19 12:49:33;;;;;;;13.02;7.18;;;5.00;75.50;;;;;;4990778;28;20034;-90
2021/03/19 12:51:59;;;;;;;12.70;7.35;;;5.00;75.50;;;;;;4988834;28;20417;-87
2021/03/19 12:54:24;;;;;;;12.25;7.10;;;5.10;75.30;;;;;;4997698;28;20030;-87
2021/03/19 12:56:50;;;;;;;10.90;6.65;;;5.10;74.90;;;;;;4986411;28;20026;-88
2021/03/19 12:59:16;;;;;;;12.18;7.35;;;5.20;74.60;;;;;;4978361;28;20030;-87
2021/03/19 13:01:41;;;;;;;10.23;6.05;;;5.20;74.60;;;;;;5007497;28;20060;-88
2021/03/19 13:04:08;;;;;;;10.02;6.65;;;5.20;74.50;;;;;;4993531;28;20045;-88
2021/03/19 13:06:34;;;;;;;11.52;6.95;;;5.20;74.40;;;;;;5008956;28;20017;-88
2021/03/19 13:09:00;;;;;;;13.07;6.88;;;5.20;74.30;;;;;;5017844;28;20037;-88
2021/03/19 13:11:25;;;;;;;11.27;7.25;;;5.30;74.40;;;;;;5002721;28;20030;-88
2021/03/19 13:13:51;;;;;;;12.68;7.35;;;5.20;74.10;;;;;;4993261;28;20117;-87
2021/03/19 13:16:17;;;;;;;12.32;7.43;;;5.30;74.10;;;;;;4981860;28;20129;-89
2021/03/19 13:18:42;;;;;;;13.07;7.47;;;5.30;74.00;;;;;;4991196;28;20030;-89
2021/03/19 13:21:08;;;;;;;16.00;7.93;;;5.30;73.90;;;;;;4995959;28;20049;-89
2021/03/19 13:23:35;;;;;;;8.18;5.55;;;5.40;74.00;;;;;;4996337;28;20030;-89
2021/03/19 13:26:01;;;;;;;7.88;5.35;;;5.30;74.00;;;;;;5005511;28;20026;-89
2021/03/19 13:28:27;;;;;;;9.80;6.05;;;5.20;73.70;;;;;;4993962;28;20085;-89